createdAt,value
2019-04-30T00:00:38.287Z,9.13
2019-04-30T00:03:19.447Z,7.10
2019-04-30T00:05:49.325Z,8.10
2019-04-30T00:08:19.369Z,8.13
2019-04-30T00:10:49.498Z,7.27
2019-04-30T00:13:21.007Z,7.63
2019-04-30T00:15:52.688Z,8.30
2019-04-30T00:18:25.475Z,8.50
2019-04-30T00:20:56.193Z,7.73
2019-04-30T00:23:30.555Z,10.87
2019-04-30T00:26:05.003Z,7.43
2019-04-30T00:28:30.477Z,8.80
2019-04-30T00:31:00.887Z,7.10
2019-04-30T00:33:31.240Z,9.57
2019-04-30T00:36:01.327Z,8.93
2019-04-30T00:38:34.359Z,8.73
2019-04-30T00:41:06.799Z,9.57
2019-04-30T00:43:37.660Z,9.47
2019-04-30T00:46:07.589Z,9.73
2019-04-30T00:48:37.779Z,8.80
2019-04-30T00:51:14.075Z,10.33
2019-04-30T00:53:43.714Z,14.47
2019-04-30T00:56:11.683Z,9.17
2019-04-30T00:58:41.807Z,8.43
2019-04-30T01:01:48.075Z,9.23
2019-04-30T01:04:34.836Z,10.03
2019-04-30T01:07:08.597Z,12.03
2019-04-30T01:09:39.667Z,11.13
2019-04-30T01:12:10.397Z,14.57
2019-04-30T01:14:40.558Z,11.73
2019-04-30T01:17:12.386Z,11.73
2019-04-30T01:19:45.892Z,10.33
2019-04-30T01:22:21.222Z,11.23
2019-04-30T01:24:49.639Z,10.73
2019-04-30T01:27:20.688Z,10.33
2019-04-30T01:29:51.199Z,10.10
2019-04-30T01:32:21.364Z,10.53
2019-04-30T01:34:53.760Z,14.20
2019-04-30T01:37:28.450Z,9.70
2019-04-30T01:39:58.801Z,11.17
2019-04-30T01:42:28.979Z,10.70
2019-04-30T01:44:59.057Z,12.70
2019-04-30T01:47:31.238Z,12.10
2019-04-30T01:50:04.914Z,10.23
2019-04-30T01:52:53.281Z,11.17
2019-04-30T01:55:39.031Z,10.27
2019-04-30T01:58:30.005Z,10.80
2019-04-30T02:01:02.984Z,10.23
2019-04-30T02:03:33.869Z,10.67
2019-04-30T02:06:04.031Z,11.03
2019-04-30T02:08:34.519Z,9.83
2019-04-30T02:11:04.702Z,11.63
2019-04-30T02:13:35.211Z,15.60
2019-04-30T02:16:05.569Z,12.40
2019-04-30T02:18:35.697Z,10.60
2019-04-30T02:21:05.866Z,10.40
2019-04-30T02:23:36.013Z,13.27
2019-04-30T02:26:08.643Z,13.00
2019-04-30T02:28:39.352Z,12.13
2019-04-30T02:31:09.725Z,13.30
2019-04-30T02:33:41.457Z,13.87
2019-04-30T02:36:19.838Z,17.27
2019-04-30T02:38:52.389Z,13.10
2019-04-30T02:41:24.320Z,14.83
2019-04-30T02:43:56.500Z,12.33
2019-04-30T02:46:31.928Z,13.57
2019-04-30T02:49:01.243Z,12.10
2019-04-30T02:51:32.495Z,13.93
2019-04-30T02:54:22.945Z,14.40
2019-04-30T02:57:12.221Z,13.93
2019-04-30T03:00:01.749Z,13.73
2019-04-30T03:02:33.525Z,14.53
2019-04-30T03:05:04.144Z,15.03
2019-04-30T03:07:34.309Z,12.53
2019-04-30T03:10:05.397Z,16.83
2019-04-30T03:12:35.920Z,13.80
2019-04-30T03:15:09.702Z,16.27
2019-04-30T03:18:06.518Z,18.73
2019-04-30T03:20:50.740Z,13.80
2019-04-30T03:23:20.995Z,14.67
2019-04-30T03:25:51.200Z,16.10
2019-04-30T03:28:21.380Z,15.10
2019-04-30T03:30:57.312Z,15.43
2019-04-30T03:33:23.455Z,14.93
2019-04-30T03:35:54.863Z,14.53
2019-04-30T03:38:25.562Z,14.23
2019-04-30T03:40:55.617Z,15.47
2019-04-30T03:43:25.780Z,14.43
2019-04-30T03:45:55.940Z,14.60
2019-04-30T03:48:26.088Z,15.47
2019-04-30T03:50:57.372Z,15.27
2019-04-30T03:53:29.813Z,17.60
2019-04-30T03:56:01.476Z,16.50
2019-04-30T03:58:32.879Z,18.17
2019-04-30T04:01:14.329Z,16.50
2019-04-30T04:04:22.096Z,16.10
2019-04-30T04:07:00.807Z,15.60
2019-04-30T04:09:39.944Z,13.93
2019-04-30T04:12:24.955Z,15.00
2019-04-30T04:14:55.421Z,15.03
2019-04-30T04:17:25.581Z,14.70
2019-04-30T04:19:55.679Z,13.33
2019-04-30T04:22:26.342Z,14.40
2019-04-30T04:24:56.518Z,14.37
2019-04-30T04:27:29.798Z,12.90
2019-04-30T04:30:01.095Z,15.60
2019-04-30T04:32:31.304Z,15.57
2019-04-30T04:35:01.592Z,13.47
2019-04-30T04:37:31.777Z,15.03
2019-04-30T04:40:02.276Z,12.33
2019-04-30T04:42:33.139Z,11.80
2019-04-30T04:45:03.692Z,13.93
2019-04-30T04:47:33.819Z,12.90
2019-04-30T04:50:04.325Z,14.50
2019-04-30T04:52:34.416Z,12.30
2019-04-30T04:55:05.208Z,15.60
2019-04-30T04:57:35.501Z,13.53
2019-04-30T05:00:07.495Z,12.97
2019-04-30T05:03:04.601Z,12.47
2019-04-30T05:05:34.768Z,13.27
2019-04-30T05:08:04.863Z,12.80
2019-04-30T05:13:35.710Z,13.47
2019-04-30T05:16:06.280Z,13.17
2019-04-30T05:18:36.458Z,13.60
2019-04-30T05:21:06.582Z,13.93
2019-04-30T05:23:36.750Z,12.33
2019-04-30T05:26:08.454Z,12.50
2019-04-30T05:28:39.347Z,13.50
2019-04-30T05:31:10.804Z,13.87
2019-04-30T05:33:40.938Z,13.60
2019-04-30T05:36:12.168Z,13.97
2019-04-30T05:38:42.368Z,13.27
2019-04-30T05:41:12.502Z,13.60
2019-04-30T05:43:43.018Z,19.27
2019-04-30T05:46:14.145Z,16.40
2019-04-30T05:48:44.408Z,17.10
2019-04-30T05:51:14.850Z,14.70
2019-04-30T05:53:45.307Z,15.57
2019-04-30T05:56:15.444Z,23.27
2019-04-30T05:58:45.627Z,17.17
2019-04-30T06:01:16.133Z,13.70
2019-04-30T06:03:46.195Z,12.50
2019-04-30T06:06:16.619Z,12.13
2019-04-30T06:09:06.289Z,14.03
2019-04-30T06:11:50.966Z,14.70
2019-04-30T06:14:48.958Z,20.20
2019-04-30T06:17:19.588Z,10.73
2019-04-30T06:19:51.543Z,16.10
2019-04-30T06:22:22.097Z,9.57
2019-04-30T06:24:52.158Z,13.47
2019-04-30T06:27:23.062Z,12.77
2019-04-30T06:29:53.298Z,20.53
2019-04-30T06:32:23.753Z,12.07
2019-04-30T06:34:54.504Z,12.70
2019-04-30T06:37:25.378Z,10.30
2019-04-30T06:39:55.709Z,14.53
2019-04-30T06:42:26.154Z,10.47
2019-04-30T06:44:56.291Z,10.13
2019-04-30T06:47:33.033Z,11.90
2019-04-30T06:50:01.289Z,10.50
2019-04-30T06:52:30.920Z,14.30
2019-04-30T06:55:01.069Z,11.00
2019-04-30T06:57:31.475Z,10.83
2019-04-30T07:00:01.578Z,10.60
2019-04-30T07:02:31.739Z,10.00
2019-04-30T07:05:02.213Z,10.40
2019-04-30T07:07:39.078Z,8.80
2019-04-30T07:10:21.107Z,9.47
2019-04-30T07:12:59.554Z,10.60
2019-04-30T07:15:30.109Z,9.10
2019-04-30T07:18:00.650Z,10.60
2019-04-30T07:20:33.992Z,10.40
2019-04-30T07:23:03.386Z,9.40
2019-04-30T07:25:33.907Z,9.87
2019-04-30T07:28:04.076Z,9.83
2019-04-30T07:30:34.675Z,9.57
2019-04-30T07:33:04.921Z,10.23
2019-04-30T07:35:35.068Z,13.30
2019-04-30T07:38:05.239Z,9.70
2019-04-30T07:40:35.296Z,10.03
2019-04-30T07:43:05.789Z,11.50
2019-04-30T07:45:36.071Z,10.90
2019-04-30T07:48:09.332Z,9.37
2019-04-30T07:50:41.113Z,10.77
2019-04-30T07:55:42.712Z,13.37
2019-04-30T07:58:12.856Z,9.63
2019-04-30T08:00:42.951Z,9.40
2019-04-30T08:03:33.825Z,9.23
2019-04-30T08:06:04.955Z,9.60
2019-04-30T08:08:35.329Z,8.60
2019-04-30T08:09:36.743Z,10.00
2019-04-30T08:11:06.139Z,9.13
2019-04-30T08:13:36.574Z,9.50
2019-04-30T08:16:09.680Z,9.10
2019-04-30T08:18:39.623Z,8.43
2019-04-30T08:21:09.757Z,10.70
2019-04-30T08:23:39.921Z,8.60
2019-04-30T08:26:10.077Z,8.40
2019-04-30T08:28:40.286Z,9.50
2019-04-30T08:31:10.406Z,9.10
2019-04-30T08:33:40.571Z,8.00
2019-04-30T08:36:10.697Z,9.47
2019-04-30T08:38:40.863Z,8.37
2019-04-30T08:41:10.995Z,7.90
2019-04-30T08:43:41.127Z,7.60
2019-04-30T08:46:12.000Z,7.67
2019-04-30T08:48:50.442Z,8.20
2019-04-30T08:51:14.667Z,7.30
2019-04-30T08:53:45.399Z,7.97
2019-04-30T08:56:15.755Z,7.47
2019-04-30T08:58:45.909Z,7.30
2019-04-30T09:01:19.221Z,7.90
2019-04-30T09:03:51.183Z,7.30
2019-04-30T09:06:24.678Z,7.27
2019-04-30T09:09:13.181Z,7.53
2019-04-30T09:11:52.883Z,7.33
2019-04-30T09:14:15.479Z,7.83
2019-04-30T09:16:45.713Z,7.17
2019-04-30T09:19:21.039Z,8.73
2019-04-30T09:21:50.129Z,8.07
2019-04-30T09:24:20.677Z,7.80
2019-04-30T09:26:50.741Z,8.30
2019-04-30T09:29:21.311Z,7.60
2019-04-30T09:31:51.451Z,8.30
2019-04-30T09:34:21.537Z,7.83
2019-04-30T09:36:51.599Z,8.00
2019-04-30T09:39:23.190Z,7.80
2019-04-30T09:41:53.825Z,8.60
2019-04-30T09:44:24.017Z,10.63
2019-04-30T09:46:54.102Z,14.00
2019-04-30T09:49:24.210Z,13.90
2019-04-30T09:51:55.451Z,20.53
2019-04-30T09:54:25.631Z,15.00
2019-04-30T09:56:56.025Z,15.50
2019-04-30T09:59:29.188Z,15.03
2019-04-30T10:01:59.630Z,21.60
2019-04-30T10:04:30.609Z,15.93
2019-04-30T10:07:01.633Z,14.20
2019-04-30T10:09:31.877Z,14.50
2019-04-30T10:12:10.501Z,14.00
2019-04-30T10:14:41.145Z,16.93
2019-04-30T10:17:30.778Z,18.00
2019-04-30T10:20:00.989Z,19.73
2019-04-30T10:22:31.504Z,17.13
2019-04-30T10:25:01.693Z,19.67
2019-04-30T10:27:31.812Z,20.80
2019-04-30T10:30:02.684Z,18.27
2019-04-30T10:32:32.924Z,23.90
2019-04-30T10:35:03.386Z,18.53
2019-04-30T10:37:33.845Z,20.37
2019-04-30T10:40:05.120Z,20.33
2019-04-30T10:42:35.338Z,18.67
2019-04-30T10:45:09.810Z,19.93
2019-04-30T10:47:41.174Z,21.20
2019-04-30T10:50:12.966Z,26.50
2019-04-30T10:52:43.225Z,21.60
2019-04-30T10:55:13.990Z,19.67
2019-04-30T10:57:44.110Z,22.07
2019-04-30T11:00:15.993Z,20.70
2019-04-30T11:02:46.126Z,25.93
2019-04-30T11:05:18.787Z,22.27
2019-04-30T11:07:49.687Z,20.87
2019-04-30T11:10:20.213Z,21.50
2019-04-30T11:12:50.286Z,20.03
2019-04-30T11:15:20.834Z,29.83
2019-04-30T11:17:51.311Z,18.77
2019-04-30T11:20:22.389Z,21.07
2019-04-30T11:22:54.874Z,21.53
2019-04-30T11:25:27.021Z,20.20
2019-04-30T11:27:58.358Z,19.97
2019-04-30T11:30:29.743Z,25.17
2019-04-30T11:33:00.432Z,20.00
2019-04-30T11:35:31.142Z,19.50
2019-04-30T11:38:01.320Z,16.67
2019-04-30T11:40:37.093Z,16.33
2019-04-30T11:43:04.792Z,21.60
2019-04-30T11:46:08.648Z,19.50
2019-04-30T11:48:39.424Z,29.63
2019-04-30T11:51:09.647Z,22.50
2019-04-30T11:53:40.152Z,17.90
2019-04-30T11:56:10.298Z,18.00
2019-04-30T11:58:40.738Z,16.37
2019-04-30T12:01:15.460Z,17.20
2019-04-30T12:03:45.630Z,19.13
2019-04-30T12:06:16.190Z,19.30
2019-04-30T12:09:04.102Z,18.13
2019-04-30T12:11:36.890Z,17.47
2019-04-30T12:14:07.172Z,15.63
2019-04-30T12:16:39.441Z,16.70
2019-04-30T12:19:09.794Z,17.90
2019-04-30T12:21:40.106Z,16.87
2019-04-30T12:24:10.342Z,18.13
2019-04-30T12:26:40.808Z,22.37
2019-04-30T12:29:11.212Z,20.30
2019-04-30T12:31:41.691Z,20.47
2019-04-30T12:34:12.090Z,17.60
2019-04-30T12:36:42.244Z,20.67
2019-04-30T12:39:12.528Z,21.37
2019-04-30T12:41:42.706Z,19.20
2019-04-30T12:44:12.917Z,17.33
2019-04-30T12:46:43.100Z,21.33
2019-04-30T12:49:13.829Z,17.40
2019-04-30T12:52:09.147Z,19.57
2019-04-30T12:55:01.315Z,17.50
2019-04-30T12:57:39.301Z,16.43
2019-04-30T13:00:11.556Z,18.30
2019-04-30T13:02:42.076Z,15.27
2019-04-30T13:05:13.756Z,16.23
2019-04-30T13:07:44.412Z,16.50
2019-04-30T13:10:15.884Z,15.53
2019-04-30T13:12:47.514Z,18.23
2019-04-30T13:15:18.598Z,16.90
2019-04-30T13:17:50.153Z,13.73
2019-04-30T13:20:23.943Z,13.40
2019-04-30T13:22:52.658Z,20.07
2019-04-30T13:25:32.241Z,14.10
2019-04-30T13:27:58.250Z,15.73
2019-04-30T13:30:30.268Z,21.77
2019-04-30T13:33:09.324Z,18.07
2019-04-30T13:35:39.160Z,16.23
2019-04-30T13:38:18.068Z,14.97
2019-04-30T13:41:08.851Z,14.10
2019-04-30T13:43:58.814Z,18.73
2019-04-30T13:46:29.634Z,17.40
2019-04-30T13:49:00.091Z,15.93
2019-04-30T13:51:30.721Z,15.97
2019-04-30T13:54:00.783Z,16.23
2019-04-30T13:56:31.031Z,32.33
2019-04-30T13:59:01.302Z,19.80
2019-04-30T14:01:31.486Z,16.60
2019-04-30T14:04:20.599Z,20.20
2019-04-30T14:07:13.080Z,16.13
2019-04-30T14:09:43.230Z,20.00
2019-04-30T14:12:13.766Z,18.70
2019-04-30T14:14:43.992Z,22.50
2019-04-30T14:17:14.195Z,19.43
2019-04-30T14:19:44.342Z,19.03
2019-04-30T14:22:14.532Z,22.23
2019-04-30T14:24:45.082Z,18.30
2019-04-30T14:27:15.592Z,14.47
2019-04-30T14:29:45.648Z,28.63
2019-04-30T14:32:16.178Z,25.33
2019-04-30T14:34:46.316Z,17.97
2019-04-30T14:37:16.890Z,21.37
2019-04-30T14:39:47.126Z,16.67
2019-04-30T14:42:20.060Z,17.43
2019-04-30T14:44:52.231Z,18.63
2019-04-30T14:47:34.672Z,16.47
2019-04-30T14:50:15.054Z,18.00
2019-04-30T14:52:56.521Z,17.67
2019-04-30T14:55:45.617Z,18.13
2019-04-30T14:58:24.539Z,20.70
2019-04-30T15:01:11.180Z,17.00
2019-04-30T15:03:41.644Z,16.37
2019-04-30T15:06:12.086Z,19.17
2019-04-30T15:08:42.588Z,16.20
2019-04-30T15:11:13.031Z,18.50
2019-04-30T15:13:43.161Z,17.13
2019-04-30T15:16:13.667Z,20.27
2019-04-30T15:18:43.828Z,16.60
2019-04-30T15:21:14.017Z,20.83
2019-04-30T15:24:00.905Z,16.50
2019-04-30T15:26:28.728Z,16.40
2019-04-30T15:29:00.094Z,16.90
2019-04-30T15:31:30.543Z,17.80
2019-04-30T15:34:11.113Z,18.57
2019-04-30T15:36:41.954Z,15.40
2019-04-30T15:39:31.069Z,13.70
2019-04-30T15:42:01.862Z,16.37
2019-04-30T15:44:40.236Z,12.87
2019-04-30T15:47:05.486Z,18.20
2019-04-30T15:49:36.325Z,13.20
2019-04-30T15:52:06.546Z,14.67
2019-04-30T15:54:36.727Z,13.93
2019-04-30T15:57:08.915Z,18.67
2019-04-30T15:59:42.953Z,21.23
2019-04-30T16:02:56.384Z,25.83
2019-04-30T16:05:36.459Z,15.63
2019-04-30T16:08:23.998Z,16.07
2019-04-30T16:11:07.394Z,14.63
2019-04-30T16:13:55.882Z,16.47
2019-04-30T16:16:28.861Z,16.53
2019-04-30T16:18:59.443Z,16.83
2019-04-30T16:21:29.617Z,16.20
2019-04-30T16:23:59.767Z,13.93
2019-04-30T16:26:29.981Z,14.03
2019-04-30T16:29:00.545Z,17.47
2019-04-30T16:31:31.895Z,15.23
2019-04-30T16:34:02.132Z,17.87
2019-04-30T16:36:32.939Z,14.20
2019-04-30T16:39:04.201Z,16.53
2019-04-30T16:41:36.263Z,19.03
2019-04-30T16:44:09.117Z,17.43
2019-04-30T16:46:39.569Z,23.60
2019-04-30T16:49:11.148Z,16.13
2019-04-30T16:51:42.849Z,15.57
2019-04-30T16:54:13.043Z,14.47
2019-04-30T16:56:43.499Z,17.00
2019-04-30T16:59:16.017Z,18.53
2019-04-30T17:01:57.156Z,16.93
2019-04-30T17:04:30.281Z,15.23
2019-04-30T17:07:19.376Z,13.50
2019-04-30T17:09:58.965Z,15.67
2019-04-30T17:12:35.147Z,17.07
2019-04-30T17:15:19.242Z,15.83
2019-04-30T17:17:49.836Z,18.70
2019-04-30T17:20:21.056Z,15.37
2019-04-30T17:22:51.247Z,17.53
2019-04-30T17:25:21.491Z,16.20
2019-04-30T17:27:51.630Z,14.83
2019-04-30T17:30:22.093Z,13.77
2019-04-30T17:32:52.251Z,12.30
2019-04-30T17:35:22.287Z,18.00
2019-04-30T17:37:52.461Z,18.10
2019-04-30T17:40:22.953Z,15.80
2019-04-30T17:42:53.122Z,16.27
2019-04-30T17:45:23.597Z,14.87
2019-04-30T17:47:53.819Z,14.63
2019-04-30T17:50:24.119Z,17.17
2019-04-30T17:52:54.264Z,13.93
2019-04-30T17:55:24.399Z,16.13
2019-04-30T17:57:55.034Z,14.40
2019-04-30T18:00:29.283Z,18.73
2019-04-30T18:02:59.939Z,14.30
2019-04-30T18:05:30.596Z,15.87
2019-04-30T18:08:00.736Z,16.30
2019-04-30T18:10:31.572Z,15.37
2019-04-30T18:13:02.006Z,18.47
2019-04-30T18:15:32.651Z,16.90
2019-04-30T18:21:36.004Z,21.07
2019-04-30T18:24:43.974Z,16.70
2019-04-30T18:27:20.995Z,17.60
2019-04-30T18:29:50.283Z,15.80
2019-04-30T18:32:22.249Z,14.63
2019-04-30T18:34:52.435Z,17.30
2019-04-30T18:37:22.675Z,16.03
2019-04-30T18:39:52.836Z,22.33
2019-04-30T18:42:23.177Z,16.13
2019-04-30T18:44:53.724Z,17.13
2019-04-30T18:47:24.351Z,16.87
2019-04-30T18:49:54.535Z,17.30
2019-04-30T18:52:24.801Z,19.17
2019-04-30T18:54:55.535Z,19.23
2019-04-30T18:57:25.748Z,21.90
2019-04-30T18:59:55.956Z,29.47
2019-04-30T19:02:26.446Z,26.67
2019-04-30T19:04:56.643Z,21.73
2019-04-30T19:07:37.969Z,20.03
2019-04-30T19:10:27.394Z,15.57
2019-04-30T19:13:18.929Z,20.40
2019-04-30T19:16:24.514Z,18.40
2019-04-30T19:19:09.421Z,16.13
2019-04-30T19:21:40.387Z,15.37
2019-04-30T19:24:10.804Z,18.57
2019-04-30T19:26:41.574Z,18.63
2019-04-30T19:29:12.104Z,19.50
2019-04-30T19:31:42.328Z,20.50
2019-04-30T19:34:12.490Z,20.40
2019-04-30T19:36:42.680Z,19.10
2019-04-30T19:39:13.498Z,18.13
2019-04-30T19:41:43.738Z,21.63
2019-04-30T19:44:13.982Z,24.47
2019-04-30T19:46:44.193Z,16.27
2019-04-30T19:49:14.764Z,20.83
2019-04-30T19:51:44.940Z,20.60
2019-04-30T19:54:15.092Z,18.30
2019-04-30T19:56:45.636Z,23.03
2019-04-30T19:59:15.826Z,20.67
2019-04-30T20:01:46.045Z,20.03
2019-04-30T20:04:16.224Z,22.10
2019-04-30T20:06:48.605Z,16.80
2019-04-30T20:09:19.395Z,23.57
2019-04-30T20:11:50.105Z,19.13
2019-04-30T20:14:20.286Z,19.10
2019-04-30T20:16:50.354Z,19.70
2019-04-30T20:19:20.536Z,17.37
2019-04-30T20:21:53.867Z,20.10
2019-04-30T20:24:22.618Z,18.63
2019-04-30T20:27:04.244Z,21.70
2019-04-30T20:29:24.687Z,20.87
2019-04-30T20:31:54.849Z,19.47
2019-04-30T20:34:25.434Z,19.00
2019-04-30T20:36:55.591Z,18.37
2019-04-30T20:39:43.386Z,21.87
2019-04-30T20:42:13.958Z,18.63
2019-04-30T20:44:44.121Z,17.93
2019-04-30T20:47:14.643Z,17.70
2019-04-30T20:49:44.846Z,22.23
2019-04-30T20:52:15.389Z,23.60
2019-04-30T20:54:45.563Z,17.47
2019-04-30T20:57:15.730Z,21.33
2019-04-30T20:59:45.784Z,20.80
2019-04-30T21:02:16.412Z,21.03
2019-04-30T21:04:46.482Z,19.37
2019-04-30T21:07:18.902Z,18.77
2019-04-30T21:09:49.184Z,21.77
2019-04-30T21:12:19.286Z,18.73
2019-04-30T21:14:49.351Z,18.17
2019-04-30T21:17:27.232Z,20.13
2019-04-30T21:19:58.854Z,20.43
2019-04-30T21:22:29.707Z,19.70
2019-04-30T21:25:00.646Z,19.13
2019-04-30T21:27:30.971Z,20.90
2019-04-30T21:30:01.056Z,20.10
2019-04-30T21:32:49.418Z,19.40
2019-04-30T21:35:38.571Z,23.00
2019-04-30T21:38:10.117Z,20.83
2019-04-30T21:40:40.276Z,21.00
2019-04-30T21:43:10.484Z,21.00
2019-04-30T21:45:40.948Z,19.50
2019-04-30T21:48:11.399Z,20.33
2019-04-30T21:50:41.466Z,20.33
2019-04-30T21:53:11.570Z,22.13
2019-04-30T21:55:41.663Z,18.70
2019-04-30T21:58:11.817Z,21.30
2019-04-30T22:00:59.347Z,20.97
2019-04-30T22:03:30.125Z,19.70
2019-04-30T22:06:00.191Z,20.80
2019-04-30T22:08:30.354Z,23.67
2019-04-30T22:11:00.852Z,20.30
2019-04-30T22:13:31.459Z,23.10
2019-04-30T22:16:01.991Z,19.23
2019-04-30T22:18:32.478Z,26.27
2019-04-30T22:21:02.973Z,22.80
2019-04-30T22:23:33.122Z,19.23
2019-04-30T22:26:03.302Z,22.57
2019-04-30T22:31:55.878Z,21.53
2019-04-30T22:34:26.073Z,18.90
2019-04-30T22:36:56.202Z,20.63
2019-04-30T22:39:45.298Z,21.10
2019-04-30T22:42:36.674Z,22.80
2019-04-30T22:45:21.598Z,22.53
2019-04-30T22:47:51.738Z,21.67
2019-04-30T22:50:22.384Z,21.77
2019-04-30T22:52:52.467Z,21.00
2019-04-30T22:55:22.658Z,22.40
2019-04-30T22:57:52.734Z,22.00
2019-04-30T23:00:33.862Z,18.77
2019-04-30T23:03:10.696Z,19.67
2019-04-30T23:05:41.280Z,20.67
2019-04-30T23:08:11.348Z,22.07
2019-04-30T23:10:41.509Z,21.43
2019-04-30T23:13:12.004Z,20.40
2019-04-30T23:15:42.158Z,20.03
2019-04-30T23:18:12.659Z,23.10
2019-04-30T23:20:42.846Z,18.60
2019-04-30T23:23:13.033Z,20.50
2019-04-30T23:25:43.226Z,22.80
2019-04-30T23:28:13.396Z,19.80
2019-04-30T23:30:43.720Z,19.80
2019-04-30T23:33:13.889Z,23.07
2019-04-30T23:35:44.784Z,21.10
2019-04-30T23:38:14.928Z,20.70
2019-04-30T23:40:50.702Z,21.80
2019-04-30T23:43:21.311Z,23.57
2019-04-30T23:45:51.367Z,20.53
2019-04-30T23:48:21.472Z,21.70
2019-04-30T23:50:51.636Z,22.03
2019-04-30T23:53:22.105Z,21.27
2019-04-30T23:55:52.194Z,20.83
2019-04-30T23:58:22.351Z,22.83
